This is the latest recevied weather packets stored in our database for station/object VE2JJ-13. If no packets are shown the sender has not sent any weather packets the latest 10 day(s).
| Time | Temp. | Humidity | Pressure | Rain* | Wind** | Luminosity | Snow |
|---|---|---|---|---|---|---|---|
| 1777603995 | 7.78° C | 71% | 1002.9 hPa | 0 mm | - | - | - |
| 1777603664 | 7.78° C | 72% | 1002.8 hPa | 0 mm | - | - | - |
| 1777603332 | 7.78° C | 72% | 1002.8 hPa | 0 mm | - | - | - |
| 1777603004 | 7.78° C | 72% | 1002.8 hPa | 0 mm | - | - | - |
| 1777602673 | 7.78° C | 72% | 1002.8 hPa | 0 mm | - | - | - |
| 1777602372 | 7.78° C | 71% | 1002.8 hPa | 0 mm | - | - | - |
| 1777602042 | 8.33° C | 71% | 1002.8 hPa | 0 mm | - | - | - |
| 1777601443 | 8.33° C | 71% | 1002.9 hPa | 0 mm | - | - | - |
| 1777587228 | 10° C | 71% | 1000.3 hPa | 0 mm | - | - | - |
| 1777586892 | 10° C | 71% | 1000.3 hPa | 0 mm | - | - | - |
| 1777586292 | 10° C | 71% | 1000.3 hPa | 0 mm | - | - | - |
| 1777583832 | 10.56° C | 71% | 999.9 hPa | 0 mm | - | - | - |
| 1777583532 | 10.56° C | 71% | 999.7 hPa | 0 mm | - | - | - |
| 1777582872 | 10.56° C | 70% | 999.7 hPa | 0 mm | - | - | - |
| 1777582641 | 10.56° C | 70% | 999.7 hPa | 0 mm | - | - | - |
| 1777581943 | 11.11° C | 70% | 999.7 hPa | 0 mm | - | - | - |
| 1777581346 | 10.56° C | 70% | 999.6 hPa | 0 mm | - | - | - |
| 1777580681 | 10.56° C | 71% | 999.5 hPa | 0 mm | - | - | - |
| 1777580382 | 10.56° C | 70% | 999.5 hPa | 0 mm | - | - | - |
| 1777579422 | 10.56° C | 71% | 999.4 hPa | 0 mm | - | - | - |
| 1777577531 | 10.56° C | 73% | 999.5 hPa | 0 mm | - | - | - |
| 1777577203 | 10° C | 73% | 999.6 hPa | 0 mm | - | - | - |
| 1777576872 | 10° C | 74% | 999.6 hPa | 0 mm | - | - | - |
| 1777576572 | 10° C | 73% | 999.6 hPa | 0 mm | - | - | - |
| 1777576241 | 10° C | 74% | 999.5 hPa | 0 mm | - | - | - |
* Rain latest hour (hover to see other rain measurements)
** Current wind speed in m/s (hover to see current wind gust speed)